Time;durP1;ratioP1;P1;durP2;ratioP2;P2;SDS_P1;SDS_P2;PMS_P1;PMS_P2;Temp;Humidity;BMP_temperature;BMP_pressure;BME280_temperature;BME280_humidity;BME280_pressure;Samples;Min_cycle;Max_cycle;Signal;HPM_P1;HPM_P2
2022/07/03 00:02:17;;;;;;;32.70;21.98;;;14.30;99.90;;;;;;10364316;28;20030;-84
2022/07/03 00:07:18;;;;;;;32.92;22.10;;;14.30;99.90;;;;;;10372963;28;20032;-85
2022/07/03 00:12:18;;;;;;;33.55;22.10;;;14.20;99.90;;;;;;10379929;28;20057;-84
2022/07/03 00:17:19;;;;;;;32.95;21.17;;;14.20;99.90;;;;;;10379441;28;20130;-84
2022/07/03 00:22:20;;;;;;;33.67;23.02;;;14.10;99.90;;;;;;10381150;28;20068;-84
2022/07/03 00:27:24;;;;;;;36.55;23.75;;;14.10;99.90;;;;;;10372483;28;20096;-84
2022/07/03 00:32:26;;;;;;;36.85;25.13;;;14.00;99.90;;;;;;10383182;28;20477;-84
2022/07/03 00:37:27;;;;;;;39.97;24.50;;;13.90;99.90;;;;;;10390887;28;20037;-84
2022/07/03 00:42:28;;;;;;;41.15;25.77;;;13.90;99.90;;;;;;10381966;28;20465;-85
2022/07/03 00:47:30;;;;;;;39.28;24.63;;;13.90;99.90;;;;;;10369931;28;20069;-84
2022/07/03 00:52:31;;;;;;;43.13;25.73;;;13.80;99.90;;;;;;10383409;28;20066;-86
2022/07/03 00:57:32;;;;;;;47.58;28.17;;;13.80;99.90;;;;;;10374171;28;20049;-85
2022/07/03 01:02:56;;;;;;;51.78;31.15;;;13.70;99.90;;;;;;10379477;28;20544;-85
2022/07/03 01:08:19;;;;;;;50.20;30.50;;;13.70;99.90;;;;;;10382672;28;20457;-85
2022/07/03 01:13:57;;;;;;;50.17;30.23;;;13.50;99.90;;;;;;10396124;28;20048;-84
2022/07/03 01:19:16;;;;;;;55.40;31.20;;;13.50;99.90;;;;;;10381207;28;20052;-85
2022/07/03 01:24:55;;;;;;;50.95;30.42;;;13.50;99.90;;;;;;10393363;28;20096;-87
2022/07/03 01:30:07;;;;;;;50.60;31.20;;;13.50;99.90;;;;;;10375517;28;20053;-85
2022/07/03 01:35:11;;;;;;;42.53;27.50;;;13.50;99.90;;;;;;10377513;28;20369;-85
2022/07/03 01:40:12;;;;;;;40.97;25.77;;;13.60;99.90;;;;;;10369357;28;20048;-85
2022/07/03 01:45:15;;;;;;;42.15;26.05;;;13.60;99.90;;;;;;10378874;28;20082;-84
2022/07/03 01:50:16;;;;;;;39.22;25.15;;;13.60;99.90;;;;;;10369843;28;20034;-85
2022/07/03 01:55:18;;;;;;;43.75;25.02;;;13.60;99.90;;;;;;10376829;28;20022;-85
2022/07/03 02:00:21;;;;;;;46.42;26.45;;;13.50;99.90;;;;;;10374783;28;20097;-84
2022/07/03 02:05:33;;;;;;;58.72;30.90;;;13.50;99.90;;;;;;10387780;28;20103;-84
2022/07/03 02:10:46;;;;;;;61.13;34.75;;;13.50;99.90;;;;;;10389745;28;20384;-84
2022/07/03 02:15:51;;;;;;;56.60;32.65;;;13.50;99.90;;;;;;10367979;28;20017;-84
2022/07/03 02:21:16;;;;;;;54.20;33.20;;;13.40;99.90;;;;;;10378687;28;20037;-85
2022/07/03 02:26:17;;;;;;;50.27;29.90;;;13.40;99.90;;;;;;10386373;28;20092;-84
2022/07/03 02:31:23;;;;;;;53.42;31.90;;;13.40;99.90;;;;;;10366003;28;20412;-85
2022/07/03 02:36:28;;;;;;;51.58;30.33;;;13.40;99.90;;;;;;10374380;28;20044;-85
2022/07/03 02:41:42;;;;;;;50.45;29.30;;;13.50;99.90;;;;;;10374796;28;20042;-85
2022/07/03 02:46:54;;;;;;;43.05;27.98;;;13.50;99.90;;;;;;10378093;28;20129;-84
2022/07/03 02:52:28;;;;;;;41.13;26.63;;;13.60;99.90;;;;;;10373412;28;20026;-84
2022/07/03 02:57:38;;;;;;;35.95;23.90;;;13.70;99.90;;;;;;10391875;28;20040;-86
2022/07/03 03:02:55;;;;;;;45.47;26.33;;;13.70;99.90;;;;;;10377916;28;20120;-83
2022/07/03 03:08:12;;;;;;;40.40;25.02;;;13.70;99.90;;;;;;10372627;28;20022;-86
2022/07/03 03:13:16;;;;;;;44.65;26.30;;;13.60;99.90;;;;;;10366736;28;20037;-85
2022/07/03 03:18:21;;;;;;;42.13;25.95;;;13.60;99.90;;;;;;10377101;28;20042;-85
2022/07/03 03:23:48;;;;;;;42.17;26.50;;;13.60;99.90;;;;;;10364908;28;20054;-84
2022/07/03 03:28:50;;;;;;;50.75;27.83;;;13.70;99.90;;;;;;10380076;28;20058;-84
2022/07/03 03:33:53;;;;;;;76.60;30.77;;;13.70;99.90;;;;;;10368908;28;20044;-84
2022/07/03 03:38:53;;;;;;;54.03;27.38;;;13.70;99.90;;;;;;10381139;28;20595;-85
2022/07/03 03:43:54;;;;;;;50.08;28.50;;;13.70;99.90;;;;;;10368796;28;20108;-84
2022/07/03 03:48:55;;;;;;;48.38;28.30;;;13.70;99.90;;;;;;10367920;28;20056;-85
2022/07/03 03:53:56;;;;;;;50.97;27.60;;;13.70;99.90;;;;;;10373349;28;20022;-84
2022/07/03 03:58:56;;;;;;;49.83;29.33;;;13.70;99.90;;;;;;10373463;28;20037;-84
2022/07/03 04:03:59;;;;;;;50.67;29.20;;;13.80;99.90;;;;;;10375776;28;20022;-83
2022/07/03 04:08:59;;;;;;;47.03;28.10;;;13.90;99.90;;;;;;10367527;28;20030;-88
2022/07/03 04:14:00;;;;;;;49.03;28.90;;;14.00;99.90;;;;;;10371636;28;20036;-84
2022/07/03 04:19:01;;;;;;;38.50;25.40;;;14.20;99.90;;;;;;10371054;28;20397;-84
2022/07/03 04:24:01;;;;;;;39.80;25.05;;;14.30;99.90;;;;;;10373111;28;20026;-87
2022/07/03 04:29:02;;;;;;;42.28;25.98;;;14.40;99.90;;;;;;10371569;28;20050;-84
2022/07/03 04:34:03;;;;;;;38.42;25.75;;;14.60;99.90;;;;;;10366698;28;20038;-84
2022/07/03 04:39:03;;;;;;;36.95;25.15;;;14.70;99.90;;;;;;10370431;28;20046;-84
2022/07/03 04:44:04;;;;;;;34.78;24.40;;;14.80;99.90;;;;;;10363091;28;20086;-85
2022/07/03 04:49:05;;;;;;;33.90;23.17;;;14.90;99.90;;;;;;10367048;28;20414;-85
2022/07/03 04:54:05;;;;;;;35.60;23.30;;;15.10;99.90;;;;;;10379647;28;20025;-84
2022/07/03 04:59:06;;;;;;;35.83;23.05;;;15.20;99.90;;;;;;10387335;28;20046;-84
2022/07/03 05:04:06;;;;;;;31.55;21.80;;;15.50;99.90;;;;;;10375157;28;20088;-85
2022/07/03 05:09:07;;;;;;;29.77;22.13;;;15.60;99.90;;;;;;10382197;28;20179;-84
2022/07/03 05:14:08;;;;;;;30.35;21.52;;;15.80;99.90;;;;;;10376118;28;20022;-84
2022/07/03 05:19:08;;;;;;;33.90;22.27;;;16.00;99.90;;;;;;10380588;28;20065;-85
2022/07/03 05:24:09;;;;;;;29.67;20.90;;;16.20;99.90;;;;;;10369212;28;20018;-85
2022/07/03 05:29:10;;;;;;;27.40;20.17;;;16.30;99.90;;;;;;10377577;28;20058;-85
2022/07/03 05:34:10;;;;;;;22.33;16.30;;;16.50;99.90;;;;;;10375859;28;20044;-84
2022/07/03 05:44:30;;;;;;;20.95;16.98;;;17.00;99.90;;;;;;10391487;28;20428;-85
2022/07/03 05:49:30;;;;;;;20.95;16.05;;;17.10;99.90;;;;;;10380462;28;20038;-84
2022/07/03 05:54:31;;;;;;;20.25;14.77;;;17.40;99.90;;;;;;10384721;28;20088;-84
2022/07/03 05:59:32;;;;;;;20.70;15.13;;;17.40;99.90;;;;;;10373306;28;20037;-85
2022/07/03 06:04:57;;;;;;;20.55;15.10;;;17.60;99.90;;;;;;10376895;28;20033;-93
2022/07/03 06:09:58;;;;;;;20.13;15.73;;;17.60;99.90;;;;;;10384153;28;20043;-84
2022/07/03 06:14:59;;;;;;;18.88;14.57;;;17.60;99.90;;;;;;10385269;28;20048;-85
2022/07/03 06:19:59;;;;;;;16.08;12.52;;;17.80;99.90;;;;;;10385511;28;20562;-88
2022/07/03 06:25:00;;;;;;;15.07;12.32;;;18.00;99.90;;;;;;10369030;28;20485;-85
2022/07/03 06:30:02;;;;;;;13.93;10.18;;;18.10;99.90;;;;;;10388529;28;20045;-83
2022/07/03 06:35:03;;;;;;;12.07;9.27;;;18.50;99.90;;;;;;10386712;28;20032;-86
2022/07/03 06:40:04;;;;;;;14.30;11.40;;;18.90;99.90;;;;;;10390509;28;20717;-83
2022/07/03 06:45:05;;;;;;;12.55;10.05;;;19.20;99.90;;;;;;10386166;28;20145;-84
2022/07/03 06:50:07;;;;;;;11.25;8.48;;;19.50;99.90;;;;;;10385810;28;20058;-84
2022/07/03 06:55:08;;;;;;;8.07;6.38;;;19.70;99.90;;;;;;10378626;28;20025;-84
2022/07/03 07:00:09;;;;;;;9.23;7.03;;;19.90;99.90;;;;;;10382730;28;20050;-88
2022/07/03 07:05:11;;;;;;;10.38;7.50;;;20.70;99.90;;;;;;10387493;28;20032;-86
2022/07/03 07:10:12;;;;;;;6.22;5.53;;;21.20;99.90;;;;;;10393060;28;20113;-87
2022/07/03 07:15:13;;;;;;;5.50;4.70;;;21.50;99.90;;;;;;10386366;28;20028;-87
2022/07/03 07:20:13;;;;;;;5.78;5.28;;;22.20;99.90;;;;;;10375155;28;20046;-87
2022/07/03 07:25:14;;;;;;;5.07;4.53;;;23.40;99.90;;;;;;10373167;28;20030;-86
2022/07/03 07:30:15;;;;;;;5.63;4.55;;;23.80;98.20;;;;;;10376513;28;20390;-86
2022/07/03 07:35:15;;;;;;;4.88;4.40;;;23.90;96.80;;;;;;10395082;28;20033;-86
2022/07/03 07:40:16;;;;;;;5.78;4.72;;;24.00;95.20;;;;;;10369523;28;20045;-88
2022/07/03 07:45:17;;;;;;;5.90;3.97;;;23.90;96.60;;;;;;10374794;28;20033;-86
2022/07/03 07:50:18;;;;;;;5.00;4.00;;;25.00;94.50;;;;;;10370802;28;20030;-86
2022/07/03 07:55:20;;;;;;;5.82;4.50;;;25.60;91.50;;;;;;10388022;28;20033;-85
2022/07/03 08:00:23;;;;;;;5.97;5.25;;;25.40;91.10;;;;;;10378402;28;20041;-91
2022/07/03 08:05:37;;;;;;;5.25;4.32;;;25.50;91.30;;;;;;10385157;28;20045;-87
2022/07/03 08:10:41;;;;;;;5.07;4.32;;;25.50;92.80;;;;;;10365186;28;20068;-86
2022/07/03 08:15:43;;;;;;;5.13;4.63;;;24.60;91.70;;;;;;10381414;28;20362;-86
2022/07/03 08:20:43;;;;;;;6.75;4.40;;;23.80;92.80;;;;;;10372208;28;20300;-89
2022/07/03 08:25:44;;;;;;;6.78;6.07;;;24.30;93.70;;;;;;10370355;28;20266;-90
2022/07/03 08:30:45;;;;;;;5.30;4.80;;;24.90;92.80;;;;;;10373929;28;20081;-86
2022/07/03 08:35:45;;;;;;;6.00;5.40;;;24.50;91.20;;;;;;10378291;28;20021;-87
2022/07/03 08:40:50;;;;;;;5.82;5.32;;;24.20;90.90;;;;;;10383278;28;20067;-84
2022/07/03 08:45:50;;;;;;;6.23;5.63;;;24.10;92.60;;;;;;10384625;28;20029;-86
2022/07/03 08:50:52;;;;;;;8.55;7.60;;;24.00;91.20;;;;;;10379139;28;20051;-86
2022/07/03 08:55:52;;;;;;;9.32;7.90;;;23.70;92.20;;;;;;10371800;28;20036;-89
2022/07/03 09:00:54;;;;;;;9.57;7.85;;;24.40;93.60;;;;;;10382870;28;20044;-84
2022/07/03 09:05:57;;;;;;;7.13;6.43;;;24.40;91.10;;;;;;10389893;28;20442;-86
2022/07/03 09:10:58;;;;;;;6.80;5.88;;;24.50;91.30;;;;;;10387750;28;20033;-86
2022/07/03 09:16:00;;;;;;;7.70;6.90;;;24.80;90.70;;;;;;10393824;28;20034;-84
2022/07/03 09:21:05;;;;;;;52.83;48.28;;;25.30;91.30;;;;;;10389203;28;20037;-83
2022/07/03 09:26:11;;;;;;;6.78;6.07;;;25.70;91.70;;;;;;10369727;28;20041;-84
2022/07/03 09:31:13;;;;;;;6.47;5.55;;;25.70;89.20;;;;;;10387115;28;20057;-85
2022/07/03 09:36:14;;;;;;;6.63;5.97;;;25.70;87.80;;;;;;10389025;28;20385;-84
2022/07/03 09:41:14;;;;;;;6.47;5.88;;;25.50;89.30;;;;;;10386016;28;20040;-89
2022/07/03 09:46:15;;;;;;;7.13;6.43;;;25.00;88.80;;;;;;10382491;28;20036;-90
2022/07/03 09:51:25;;;;;;;6.82;6.00;;;24.40;89.90;;;;;;10390040;28;20048;-84
2022/07/03 09:56:32;;;;;;;8.35;6.93;;;24.40;91.70;;;;;;10373046;28;20033;-85
2022/07/03 10:01:35;;;;;;;8.95;6.78;;;24.60;91.00;;;;;;10370881;28;20037;-84
2022/07/03 10:07:05;;;;;;;7.05;6.03;;;25.30;87.90;;;;;;10374253;28;20477;-84
2022/07/03 10:12:06;;;;;;;7.00;6.18;;;25.90;88.30;;;;;;10376879;28;20042;-85
2022/07/03 10:17:07;;;;;;;6.78;5.68;;;25.80;83.70;;;;;;10373628;28;20400;-85
2022/07/03 10:22:15;;;;;;;7.53;6.80;;;26.00;90.10;;;;;;10369445;28;20560;-87
2022/07/03 10:27:16;;;;;;;7.63;6.15;;;27.30;83.10;;;;;;10374528;28;20088;-87
2022/07/03 10:32:17;;;;;;;6.55;5.88;;;27.80;81.50;;;;;;10378087;28;20049;-87
2022/07/03 10:37:21;;;;;;;6.70;5.97;;;27.90;79.90;;;;;;10374979;28;20041;-88
2022/07/03 10:47:53;;;;;;;7.38;5.80;;;27.50;82.70;;;;;;10382878;28;20048;-84
2022/07/03 10:53:23;;;;;;;8.70;6.60;;;27.80;81.60;;;;;;10374391;28;20034;-84
2022/07/03 10:58:27;;;;;;;9.68;6.60;;;27.70;78.50;;;;;;10375715;28;20045;-86
2022/07/03 11:03:56;;;;;;;8.17;7.37;;;26.70;78.80;;;;;;10379415;28;20141;-85
2022/07/03 11:09:04;;;;;;;8.75;7.32;;;26.20;84.60;;;;;;10384391;28;20299;-87
2022/07/03 11:14:31;;;;;;;7.28;6.10;;;26.70;83.40;;;;;;10382486;28;20034;-85
2022/07/03 11:19:32;;;;;;;7.05;6.25;;;27.70;83.40;;;;;;10370210;28;20136;-86
2022/07/03 11:24:41;;;;;;;7.47;6.75;;;28.40;81.80;;;;;;10373101;28;20021;-87
2022/07/03 11:29:48;;;;;;;7.03;6.15;;;28.90;75.40;;;;;;10374411;28;20081;-86
2022/07/03 11:34:48;;;;;;;6.55;5.78;;;28.60;75.00;;;;;;10371702;28;20037;-83
2022/07/03 11:39:54;;;;;;;8.05;6.45;;;28.80;80.50;;;;;;10383634;28;20041;-84
2022/07/03 11:44:55;;;;;;;8.48;6.68;;;29.30;79.60;;;;;;10378210;28;20108;-88
2022/07/03 11:49:56;;;;;;;7.28;6.55;;;28.60;74.80;;;;;;10371742;28;20040;-85
2022/07/03 11:54:56;;;;;;;6.53;5.72;;;28.30;74.80;;;;;;10382180;28;20392;-84
2022/07/03 12:00:04;;;;;;;10.68;7.15;;;28.00;75.90;;;;;;10390366;28;20129;-86
2022/07/03 12:05:15;;;;;;;9.65;6.38;;;28.10;75.90;;;;;;10382439;28;20021;-85
2022/07/03 12:10:16;;;;;;;8.93;6.03;;;28.00;75.90;;;;;;10387914;28;20095;-83
2022/07/03 12:15:16;;;;;;;9.98;7.72;;;28.00;77.10;;;;;;10383891;28;20084;-84
2022/07/03 12:20:17;;;;;;;7.97;6.32;;;27.30;76.70;;;;;;10377496;28;20115;-85
2022/07/03 12:25:18;;;;;;;8.38;7.22;;;27.70;80.30;;;;;;10385123;28;20064;-85
2022/07/03 12:30:27;;;;;;;10.82;7.90;;;28.10;76.40;;;;;;10389531;28;20045;-85
2022/07/03 12:35:28;;;;;;;7.70;6.47;;;28.50;77.70;;;;;;10390094;28;20112;-85
2022/07/03 12:40:29;;;;;;;7.15;6.43;;;28.10;73.70;;;;;;10381077;28;20041;-87
2022/07/03 12:45:30;;;;;;;7.40;6.60;;;27.80;78.00;;;;;;10381906;28;20022;-85
2022/07/03 12:50:47;;;;;;;11.00;7.32;;;28.30;77.50;;;;;;10388846;28;20060;-87
2022/07/03 12:55:48;;;;;;;8.27;6.57;;;28.60;74.00;;;;;;10384924;28;20184;-88
2022/07/03 13:00:49;;;;;;;9.95;6.55;;;28.10;73.30;;;;;;10385083;28;20091;-85
2022/07/03 13:05:50;;;;;;;7.80;6.55;;;28.40;76.60;;;;;;10381499;28;20104;-86
2022/07/03 13:10:55;;;;;;;8.98;7.28;;;28.60;77.90;;;;;;10377613;28;20116;-85
2022/07/03 13:15:56;;;;;;;8.90;6.82;;;28.20;75.50;;;;;;10384829;28;20033;-83
2022/07/03 13:20:56;;;;;;;7.00;5.50;;;28.50;78.10;;;;;;10382896;28;20046;-89
2022/07/03 13:25:57;;;;;;;7.55;6.13;;;28.90;76.10;;;;;;10379480;28;20134;-83
2022/07/03 13:30:57;;;;;;;8.20;6.28;;;29.10;75.80;;;;;;10384884;28;20824;-85
2022/07/03 13:35:58;;;;;;;8.07;6.50;;;29.10;75.80;;;;;;10380707;28;20038;-88
2022/07/03 13:40:58;;;;;;;9.45;6.38;;;29.10;75.60;;;;;;10381649;28;20046;-84
2022/07/03 13:45:59;;;;;;;7.20;6.28;;;29.00;75.60;;;;;;10374269;28;20034;-85
2022/07/03 13:51:00;;;;;;;8.90;6.90;;;28.60;75.10;;;;;;10379678;28;20803;-85
2022/07/03 13:56:01;;;;;;;8.23;6.78;;;28.30;73.90;;;;;;10376395;28;20461;-84
2022/07/03 14:01:02;;;;;;;7.63;6.47;;;27.80;74.20;;;;;;10379139;28;20049;-84
2022/07/03 14:06:03;;;;;;;7.70;6.25;;;27.50;74.30;;;;;;10371872;28;20475;-85
2022/07/03 14:11:04;;;;;;;8.50;6.32;;;27.50;74.50;;;;;;10373239;28;20025;-85
2022/07/03 14:16:05;;;;;;;10.95;6.68;;;27.60;77.20;;;;;;10375622;28;20607;-85
2022/07/03 14:21:06;;;;;;;9.05;7.55;;;27.70;76.20;;;;;;10367203;23;20070;-86
2022/07/03 14:26:07;;;;;;;8.60;6.95;;;27.40;76.70;;;;;;10307319;28;20041;-83
2022/07/03 14:36:24;;;;;;;14.13;7.00;;;27.10;75.70;;;;;;10307347;28;20026;-84
2022/07/03 14:41:25;;;;;;;7.85;7.05;;;26.90;77.10;;;;;;10297715;28;20455;-83
2022/07/03 14:46:25;;;;;;;7.70;6.45;;;26.90;77.10;;;;;;10308946;28;20097;-83
2022/07/03 14:51:26;;;;;;;9.77;6.70;;;26.80;77.70;;;;;;10299821;28;20056;-83
2022/07/03 14:56:29;;;;;;;11.55;7.57;;;26.70;76.20;;;;;;10309500;28;20018;-83
2022/07/03 15:01:31;;;;;;;7.95;7.15;;;26.30;75.70;;;;;;10298473;28;20808;-85
2022/07/03 15:06:32;;;;;;;9.00;7.68;;;26.00;77.70;;;;;;10302087;28;20054;-84
2022/07/03 15:17:15;;;;;;;7.70;6.95;;;26.10;79.00;;;;;;10293874;28;20046;-84
2022/07/03 15:22:19;;;;;;;10.23;6.80;;;26.20;77.40;;;;;;10303478;28;20466;-81
2022/07/03 15:27:22;;;;;;;7.47;6.68;;;26.20;77.80;;;;;;10302634;28;20398;-82
2022/07/03 15:32:23;;;;;;;8.88;7.28;;;26.00;79.50;;;;;;10306968;28;20125;-83
2022/07/03 15:37:35;;;;;;;8.52;6.85;;;26.10;77.90;;;;;;10298534;28;20038;-83
2022/07/03 15:42:43;;;;;;;7.55;6.45;;;26.10;79.10;;;;;;10308749;28;20034;-80
2022/07/03 15:48:08;;;;;;;8.73;7.07;;;26.10;77.80;;;;;;10297136;28;20026;-81
2022/07/03 15:53:17;;;;;;;9.50;6.68;;;26.00;78.20;;;;;;10297725;28;20137;-82
2022/07/03 15:58:21;;;;;;;8.30;6.95;;;26.00;77.50;;;;;;10303656;28;20041;-83
2022/07/03 16:03:32;;;;;;;9.87;6.53;;;25.90;80.00;;;;;;10299315;28;20109;-83
2022/07/03 16:08:34;;;;;;;9.40;7.35;;;25.90;79.20;;;;;;10305834;28;20478;-81
2022/07/03 16:13:38;;;;;;;8.15;7.13;;;26.00;79.50;;;;;;10299516;28;20030;-81
2022/07/03 16:18:40;;;;;;;8.87;7.30;;;25.90;77.80;;;;;;10307558;28;20049;-85
2022/07/03 16:23:43;;;;;;;7.47;6.35;;;25.80;79.10;;;;;;10309026;28;20055;-84
2022/07/03 16:28:43;;;;;;;9.10;6.65;;;25.70;79.90;;;;;;10303351;28;20172;-85
2022/07/03 16:33:51;;;;;;;9.25;6.88;;;25.70;80.50;;;;;;10300404;28;20069;-83
2022/07/03 16:39:00;;;;;;;9.52;6.95;;;25.70;80.30;;;;;;10295243;28;20034;-86
2022/07/03 16:44:08;;;;;;;8.30;6.38;;;25.70;79.60;;;;;;10288354;28;20032;-86
2022/07/03 16:49:09;;;;;;;7.85;6.35;;;25.50;79.00;;;;;;10313524;28;20595;-86
2022/07/03 16:54:13;;;;;;;7.95;7.05;;;25.40;79.90;;;;;;10311172;28;20053;-86
2022/07/03 16:59:16;;;;;;;;;;;25.40;80.30;;;;;;10323844;28;20034;-85
2022/07/03 17:04:18;;;;;;;8.13;7.07;;;25.20;80.30;;;;;;10316999;28;19984;-86
2022/07/03 17:09:21;;;;;;;8.65;7.20;;;25.20;80.70;;;;;;10321320;28;20037;-83
2022/07/03 17:14:21;;;;;;;7.43;6.63;;;25.10;81.10;;;;;;10314456;28;20121;-85
2022/07/03 17:19:24;;;;;;;9.02;7.20;;;25.00;80.70;;;;;;10311772;28;20045;-84
2022/07/03 17:24:28;;;;;;;7.45;6.75;;;25.00;81.50;;;;;;10308411;28;20082;-82
2022/07/03 17:29:44;;;;;;;9.05;7.00;;;24.80;83.40;;;;;;10301630;28;20538;-84
2022/07/03 17:34:51;;;;;;;9.02;7.07;;;24.70;83.10;;;;;;10315622;28;20030;-82
2022/07/03 17:39:52;;;;;;;8.75;7.85;;;24.50;86.60;;;;;;10310182;28;20041;-83
2022/07/03 17:44:55;;;;;;;9.30;8.18;;;24.10;90.20;;;;;;10310155;28;20030;-83
2022/07/03 17:49:57;;;;;;;8.77;7.88;;;23.90;90.50;;;;;;10306856;28;20019;-86
2022/07/03 17:55:00;;;;;;;10.45;8.27;;;23.70;91.20;;;;;;10311566;28;20030;-85
2022/07/03 18:00:13;;;;;;;9.40;8.35;;;23.40;91.80;;;;;;10304678;28;20117;-82
2022/07/03 18:05:14;;;;;;;9.68;8.68;;;23.00;92.80;;;;;;10311288;28;20084;-83
2022/07/03 18:10:19;;;;;;;8.93;8.13;;;22.60;93.20;;;;;;10310918;28;20173;-86
2022/07/03 18:15:29;;;;;;;10.60;8.80;;;22.30;93.60;;;;;;10304646;28;20053;-82
2022/07/03 18:20:32;;;;;;;9.98;8.80;;;22.10;94.60;;;;;;10301500;28;20054;-80
2022/07/03 18:25:35;;;;;;;10.55;9.10;;;21.80;95.10;;;;;;10303349;28;20022;-83
2022/07/03 18:30:37;;;;;;;12.82;9.88;;;21.60;95.80;;;;;;10299737;28;20390;-84
2022/07/03 18:35:39;;;;;;;11.43;9.45;;;21.30;96.60;;;;;;10298672;28;20025;-81
2022/07/03 18:40:42;;;;;;;10.82;9.68;;;21.10;97.60;;;;;;10304289;28;20703;-81
2022/07/03 18:45:44;;;;;;;14.40;10.20;;;20.90;99.40;;;;;;10308410;28;20060;-82
2022/07/03 18:50:49;;;;;;;11.52;9.40;;;20.80;99.90;;;;;;10307490;28;20023;-83
2022/07/03 18:55:56;;;;;;;10.75;9.63;;;20.60;99.90;;;;;;10307950;28;20024;-84
2022/07/03 19:01:00;;;;;;;9.57;8.57;;;20.50;99.90;;;;;;10311429;28;20703;-83
2022/07/03 19:06:05;;;;;;;10.57;9.00;;;20.40;99.90;;;;;;10312936;28;20030;-82
2022/07/03 19:11:08;;;;;;;11.15;8.85;;;20.30;99.90;;;;;;10314724;28;20129;-83
2022/07/03 19:16:15;;;;;;;11.85;8.98;;;20.10;99.90;;;;;;10305662;28;20186;-84
2022/07/03 19:21:16;;;;;;;12.50;9.60;;;19.90;99.90;;;;;;10297995;28;20101;-82
2022/07/03 19:26:17;;;;;;;14.27;9.48;;;19.70;99.90;;;;;;10308482;28;20526;-82
2022/07/03 19:31:18;;;;;;;11.98;9.68;;;19.60;99.90;;;;;;10296694;28;20041;-84
2022/07/03 19:36:20;;;;;;;10.60;9.15;;;19.50;99.90;;;;;;10300038;28;20034;-84
2022/07/03 19:41:21;;;;;;;14.07;10.23;;;19.40;99.90;;;;;;10310310;28;20046;-85
2022/07/03 19:46:23;;;;;;;14.85;11.13;;;19.30;99.90;;;;;;10312620;28;20026;-84
2022/07/03 19:51:24;;;;;;;11.80;9.27;;;19.10;99.90;;;;;;10309671;28;20100;-84
2022/07/03 19:56:25;;;;;;;12.15;10.07;;;19.10;99.90;;;;;;10312927;28;20038;-87
2022/07/03 20:01:25;;;;;;;10.38;9.05;;;19.00;99.90;;;;;;10296536;28;20057;-84
2022/07/03 20:06:27;;;;;;;12.70;9.30;;;18.90;99.90;;;;;;10294683;28;20369;-83
2022/07/03 20:11:29;;;;;;;13.07;9.57;;;18.90;99.90;;;;;;10310047;28;20035;-85
2022/07/03 20:16:30;;;;;;;14.88;9.60;;;18.90;99.90;;;;;;10299141;28;20564;-85
2022/07/03 20:21:30;;;;;;;10.77;8.70;;;18.80;99.90;;;;;;10296568;28;20069;-85
2022/07/03 20:26:31;;;;;;;11.48;8.93;;;18.80;99.90;;;;;;10304681;28;20019;-87
2022/07/03 20:31:51;;;;;;;13.68;9.90;;;18.80;99.90;;;;;;10307286;28;20041;-87
2022/07/03 20:36:53;;;;;;;14.15;9.80;;;18.80;99.90;;;;;;10308586;28;20117;-84
2022/07/03 20:41:58;;;;;;;10.98;8.68;;;18.80;99.90;;;;;;10315680;28;20117;-84
2022/07/03 20:46:59;;;;;;;11.52;9.63;;;18.60;99.90;;;;;;10298970;28;20136;-84
2022/07/03 20:52:00;;;;;;;13.23;8.68;;;18.60;99.90;;;;;;10310273;28;20502;-84
2022/07/03 20:57:01;;;;;;;11.48;8.73;;;18.50;99.90;;;;;;10311766;28;20041;-84
2022/07/03 21:02:02;;;;;;;11.38;8.57;;;18.40;99.90;;;;;;10313959;28;20047;-84
2022/07/03 21:07:07;;;;;;;9.70;8.27;;;18.40;99.90;;;;;;10312474;28;20039;-84
2022/07/03 21:12:07;;;;;;;8.90;7.40;;;18.30;99.90;;;;;;10314435;28;20027;-87
2022/07/03 21:23:47;;;;;;;9.55;7.60;;;18.30;99.90;;;;;;10295394;28;20383;-84
2022/07/03 21:29:03;;;;;;;8.82;7.15;;;18.20;99.90;;;;;;10213920;29;20043;-84
2022/07/03 21:34:04;;;;;;;11.23;7.43;;;18.10;99.90;;;;;;10206112;28;20035;-84
2022/07/03 21:39:38;;;;;;;11.30;8.35;;;18.00;99.90;;;;;;10219232;28;20487;-84
2022/07/03 21:44:39;;;;;;;10.30;8.18;;;17.90;99.90;;;;;;10221573;28;20035;-84
2022/07/03 21:49:40;;;;;;;10.57;7.75;;;17.90;99.90;;;;;;10293110;28;20038;-86
2022/07/03 21:54:41;;;;;;;9.38;7.18;;;17.70;99.90;;;;;;10313207;28;20041;-84
2022/07/03 21:59:43;;;;;;;9.23;7.20;;;17.70;99.90;;;;;;10315889;28;20137;-84
2022/07/03 22:04:43;;;;;;;9.18;7.93;;;17.70;99.90;;;;;;10311773;28;20034;-84
2022/07/03 22:09:45;;;;;;;9.32;7.47;;;17.70;99.90;;;;;;10309979;28;20054;-85
2022/07/03 22:14:45;;;;;;;9.10;6.97;;;17.50;99.90;;;;;;10314155;28;21022;-84
2022/07/03 22:19:46;;;;;;;9.93;7.60;;;17.50;99.90;;;;;;10306617;28;20174;-85
2022/07/03 22:24:46;;;;;;;10.23;7.60;;;17.50;99.90;;;;;;10298398;28;20043;-83
2022/07/03 22:29:48;;;;;;;11.23;8.45;;;17.50;99.90;;;;;;10287512;28;20478;-84
2022/07/03 22:34:48;;;;;;;11.77;9.00;;;17.50;99.90;;;;;;10302587;28;20034;-84
2022/07/03 22:39:49;;;;;;;9.52;8.00;;;17.40;99.90;;;;;;10301585;28;20582;-84
2022/07/03 22:44:50;;;;;;;10.55;8.82;;;17.40;99.90;;;;;;10300567;28;20027;-83
2022/07/03 22:49:50;;;;;;;9.50;8.35;;;17.30;99.90;;;;;;10296360;28;20034;-83
2022/07/03 22:54:51;;;;;;;9.13;8.05;;;17.40;99.90;;;;;;10303601;28;20035;-83
2022/07/03 22:59:51;;;;;;;8.77;7.57;;;17.40;99.90;;;;;;10301745;28;20428;-84
2022/07/03 23:04:52;;;;;;;10.13;8.27;;;17.40;99.90;;;;;;10304741;28;20679;-84
2022/07/03 23:09:53;;;;;;;9.73;7.90;;;17.30;99.90;;;;;;10301294;28;20394;-84
2022/07/03 23:14:53;;;;;;;7.97;6.93;;;17.30;99.90;;;;;;10304492;28;20394;-83
2022/07/03 23:19:54;;;;;;;10.13;7.45;;;17.20;99.90;;;;;;10298988;28;20049;-85
2022/07/03 23:24:54;;;;;;;9.40;8.25;;;17.20;99.90;;;;;;10301013;28;20057;-84
2022/07/03 23:29:55;;;;;;;10.43;8.55;;;17.10;99.90;;;;;;10302103;28;20830;-84
2022/07/03 23:34:55;;;;;;;9.73;8.00;;;17.00;99.90;;;;;;10313575;28;20125;-84
2022/07/03 23:39:56;;;;;;;11.30;8.63;;;16.80;99.90;;;;;;10317459;28;20038;-83
2022/07/03 23:44:57;;;;;;;8.82;7.93;;;16.80;99.90;;;;;;10297696;28;20039;-83
2022/07/03 23:55:18;;;;;;;12.52;9.38;;;16.60;99.90;;;;;;10301484;28;20073;-84
